To NAV CANADA Home Page Login to a new session Search on AWWS site Feedback and Comments Disclaimer Vers la page française équivalente Tips FAQ What's new on the site To the Forecasts and Observations / NOTAM section To "File a Flight Plan" website Publications and other links Update of the User's profile FIC Telephone Numbers My Weather Data Folder Route Weather Data Regional Weather Data Local Weather Data To the Forecasts and Observations / NOTAM section
Request Generated 03/02/2015 at 18:56:57 UTC . Weather information available at that time is displayed.

METAR/TAF

SUDBURY/ON    

METAR CYSB 021800Z 31012G19KT 20SM BKN040 M08/M16 A3019 RMK SC5
SLP248=
METAR CYSB 021700Z 32013G22KT 20SM DRSN BKN036 M08/M17 A3016 RMK SC6
INTMT -SN SLP237=
METAR CYSB 021600Z 32015G23KT 15SM DRSN FEW009 BKN044 M09/M16 A3013
RMK SF2SC4 INTMT -SN SLP229=

TAF AMD CYSB 021526Z 0215/0302 30012G22KT P6SM -SN SCT020 TEMPO
0215/0217 11/2SM -SHSN BKN020
FM021700 30012G22KT P6SM BKN030
FM021900 30012KT P6SM FEW030
RMK NXT FCST BY 022000Z=
Your time UTC time
Weather data provided by Environment Canada and NAV CANADA